sensor_id;sensor_type;location;lat;lon;timestamp;temperature;humidity
15452;DHT22;7827;53.594;9.938;2022-09-30T00:01:39;10.10;99.90
15452;DHT22;7827;53.594;9.938;2022-09-30T00:04:12;10.00;99.90
15452;DHT22;7827;53.594;9.938;2022-09-30T00:06:43;10.10;99.90
15452;DHT22;7827;53.594;9.938;2022-09-30T00:09:14;10.00;99.90
15452;DHT22;7827;53.594;9.938;2022-09-30T00:11:43;10.00;99.90
15452;DHT22;7827;53.594;9.938;2022-09-30T00:14:15;10.00;99.90
15452;DHT22;7827;53.594;9.938;2022-09-30T00:16:45;9.90;99.90
15452;DHT22;7827;53.594;9.938;2022-09-30T00:19:15;9.90;99.90
15452;DHT22;7827;53.594;9.938;2022-09-30T00:21:43;9.90;99.90
15452;DHT22;7827;53.594;9.938;2022-09-30T00:24:13;9.90;99.90
15452;DHT22;7827;53.594;9.938;2022-09-30T00:26:41;9.90;99.90
15452;DHT22;7827;53.594;9.938;2022-09-30T00:29:10;9.90;99.90
15452;DHT22;7827;53.594;9.938;2022-09-30T00:31:39;9.80;99.90
15452;DHT22;7827;53.594;9.938;2022-09-30T00:34:08;9.90;99.90
15452;DHT22;7827;53.594;9.938;2022-09-30T00:36:40;9.80;99.90
15452;DHT22;7827;53.594;9.938;2022-09-30T00:39:13;9.80;99.90
15452;DHT22;7827;53.594;9.938;2022-09-30T00:41:45;9.80;99.90
15452;DHT22;7827;53.594;9.938;2022-09-30T00:44:42;9.80;99.90
15452;DHT22;7827;53.594;9.938;2022-09-30T00:47:39;9.80;99.90
15452;DHT22;7827;53.594;9.938;2022-09-30T00:50:26;9.80;99.90
15452;DHT22;7827;53.594;9.938;2022-09-30T00:53:02;9.80;99.90
15452;DHT22;7827;53.594;9.938;2022-09-30T00:55:47;9.80;99.90
15452;DHT22;7827;53.594;9.938;2022-09-30T00:58:23;9.80;99.90
15452;DHT22;7827;53.594;9.938;2022-09-30T01:00:55;9.80;99.90
15452;DHT22;7827;53.594;9.938;2022-09-30T01:03:29;9.80;99.90
15452;DHT22;7827;53.594;9.938;2022-09-30T01:05:59;9.70;99.90
15452;DHT22;7827;53.594;9.938;2022-09-30T01:08:27;9.80;99.90
15452;DHT22;7827;53.594;9.938;2022-09-30T01:11:00;9.80;99.90
15452;DHT22;7827;53.594;9.938;2022-09-30T01:13:34;9.70;99.90
15452;DHT22;7827;53.594;9.938;2022-09-30T01:16:24;9.70;99.90
15452;DHT22;7827;53.594;9.938;2022-09-30T01:19:34;9.70;99.90
15452;DHT22;7827;53.594;9.938;2022-09-30T01:22:38;9.70;99.90
15452;DHT22;7827;53.594;9.938;2022-09-30T01:25:30;9.60;99.90
15452;DHT22;7827;53.594;9.938;2022-09-30T01:28:41;9.60;99.90
15452;DHT22;7827;53.594;9.938;2022-09-30T01:31:31;9.60;99.90
15452;DHT22;7827;53.594;9.938;2022-09-30T01:34:16;9.60;99.90
15452;DHT22;7827;53.594;9.938;2022-09-30T01:37:06;9.60;99.90
15452;DHT22;7827;53.594;9.938;2022-09-30T01:39:49;9.50;99.90
15452;DHT22;7827;53.594;9.938;2022-09-30T01:42:29;9.50;99.90
15452;DHT22;7827;53.594;9.938;2022-09-30T01:45:09;9.50;99.90
15452;DHT22;7827;53.594;9.938;2022-09-30T01:47:47;9.50;99.90
15452;DHT22;7827;53.594;9.938;2022-09-30T01:50:26;9.40;99.90
15452;DHT22;7827;53.594;9.938;2022-09-30T01:53:05;9.40;99.90
15452;DHT22;7827;53.594;9.938;2022-09-30T01:55:42;9.40;99.90
15452;DHT22;7827;53.594;9.938;2022-09-30T01:58:20;9.40;99.90
15452;DHT22;7827;53.594;9.938;2022-09-30T02:00:55;9.30;99.90
15452;DHT22;7827;53.594;9.938;2022-09-30T02:03:32;9.40;99.90
15452;DHT22;7827;53.594;9.938;2022-09-30T02:06:06;9.30;99.90
15452;DHT22;7827;53.594;9.938;2022-09-30T02:08:40;9.30;99.90
15452;DHT22;7827;53.594;9.938;2022-09-30T02:11:14;9.30;99.90
15452;DHT22;7827;53.594;9.938;2022-09-30T02:13:50;9.30;99.90
15452;DHT22;7827;53.594;9.938;2022-09-30T02:16:28;9.30;99.90
15452;DHT22;7827;53.594;9.938;2022-09-30T02:19:08;9.30;99.90
15452;DHT22;7827;53.594;9.938;2022-09-30T02:21:43;9.30;99.90
15452;DHT22;7827;53.594;9.938;2022-09-30T02:24:21;9.30;99.90
15452;DHT22;7827;53.594;9.938;2022-09-30T02:26:56;9.40;99.90
15452;DHT22;7827;53.594;9.938;2022-09-30T02:29:29;9.40;99.90
15452;DHT22;7827;53.594;9.938;2022-09-30T02:32:06;9.50;99.90
15452;DHT22;7827;53.594;9.938;2022-09-30T02:34:43;9.50;99.90
15452;DHT22;7827;53.594;9.938;2022-09-30T02:37:18;9.50;99.90
15452;DHT22;7827;53.594;9.938;2022-09-30T02:39:52;9.50;99.90
15452;DHT22;7827;53.594;9.938;2022-09-30T02:42:26;9.50;99.90
15452;DHT22;7827;53.594;9.938;2022-09-30T02:45:01;9.50;99.90
15452;DHT22;7827;53.594;9.938;2022-09-30T02:47:44;9.50;99.90
15452;DHT22;7827;53.594;9.938;2022-09-30T02:50:24;9.50;99.90
15452;DHT22;7827;53.594;9.938;2022-09-30T02:53:09;9.50;99.90
15452;DHT22;7827;53.594;9.938;2022-09-30T02:56:03;9.50;99.90
15452;DHT22;7827;53.594;9.938;2022-09-30T02:58:42;9.60;99.90
15452;DHT22;7827;53.594;9.938;2022-09-30T03:01:14;9.60;99.90
15452;DHT22;7827;53.594;9.938;2022-09-30T03:03:46;9.60;99.90
15452;DHT22;7827;53.594;9.938;2022-09-30T03:06:18;9.60;99.90
15452;DHT22;7827;53.594;9.938;2022-09-30T03:08:47;9.60;99.90
15452;DHT22;7827;53.594;9.938;2022-09-30T03:11:18;9.60;99.90
15452;DHT22;7827;53.594;9.938;2022-09-30T03:17:25;9.60;99.90
15452;DHT22;7827;53.594;9.938;2022-09-30T03:20:29;9.60;99.90
15452;DHT22;7827;53.594;9.938;2022-09-30T03:23:28;9.60;99.90
15452;DHT22;7827;53.594;9.938;2022-09-30T03:26:22;9.60;99.90
15452;DHT22;7827;53.594;9.938;2022-09-30T03:29:06;9.60;99.90
15452;DHT22;7827;53.594;9.938;2022-09-30T03:31:46;9.60;99.90
15452;DHT22;7827;53.594;9.938;2022-09-30T03:34:27;9.60;99.90
15452;DHT22;7827;53.594;9.938;2022-09-30T03:37:01;9.60;99.90
15452;DHT22;7827;53.594;9.938;2022-09-30T03:39:47;9.60;99.90
15452;DHT22;7827;53.594;9.938;2022-09-30T03:42:24;9.60;99.90
15452;DHT22;7827;53.594;9.938;2022-09-30T03:45:01;9.60;99.90
15452;DHT22;7827;53.594;9.938;2022-09-30T03:47:34;9.60;99.90
15452;DHT22;7827;53.594;9.938;2022-09-30T03:50:09;9.60;99.90
15452;DHT22;7827;53.594;9.938;2022-09-30T03:52:40;9.60;99.90
15452;DHT22;7827;53.594;9.938;2022-09-30T03:55:10;9.60;99.90
15452;DHT22;7827;53.594;9.938;2022-09-30T03:57:39;9.60;99.90
15452;DHT22;7827;53.594;9.938;2022-09-30T04:00:08;9.60;99.90
15452;DHT22;7827;53.594;9.938;2022-09-30T04:02:38;9.60;99.90
15452;DHT22;7827;53.594;9.938;2022-09-30T04:05:07;9.60;99.90
15452;DHT22;7827;53.594;9.938;2022-09-30T04:07:35;9.70;99.90
15452;DHT22;7827;53.594;9.938;2022-09-30T04:10:04;9.70;99.90
15452;DHT22;7827;53.594;9.938;2022-09-30T04:12:34;9.70;99.90
15452;DHT22;7827;53.594;9.938;2022-09-30T04:15:03;9.60;99.90
15452;DHT22;7827;53.594;9.938;2022-09-30T04:17:32;9.60;99.90
15452;DHT22;7827;53.594;9.938;2022-09-30T04:20:00;9.60;99.90
15452;DHT22;7827;53.594;9.938;2022-09-30T04:22:29;9.60;99.90
15452;DHT22;7827;53.594;9.938;2022-09-30T04:24:57;9.60;99.90
15452;DHT22;7827;53.594;9.938;2022-09-30T04:27:25;9.60;99.90
15452;DHT22;7827;53.594;9.938;2022-09-30T04:29:54;9.60;99.90
15452;DHT22;7827;53.594;9.938;2022-09-30T04:32:23;9.60;99.90
15452;DHT22;7827;53.594;9.938;2022-09-30T04:34:52;9.60;99.90
15452;DHT22;7827;53.594;9.938;2022-09-30T04:37:20;9.60;99.90
15452;DHT22;7827;53.594;9.938;2022-09-30T04:39:49;9.60;99.90
15452;DHT22;7827;53.594;9.938;2022-09-30T04:42:17;9.60;99.90
15452;DHT22;7827;53.594;9.938;2022-09-30T04:44:45;9.60;99.90
15452;DHT22;7827;53.594;9.938;2022-09-30T04:47:18;9.60;99.90
15452;DHT22;7827;53.594;9.938;2022-09-30T04:49:46;9.60;99.90
15452;DHT22;7827;53.594;9.938;2022-09-30T04:52:14;9.60;99.90
15452;DHT22;7827;53.594;9.938;2022-09-30T04:54:42;9.60;99.90
15452;DHT22;7827;53.594;9.938;2022-09-30T04:57:11;9.60;99.90
15452;DHT22;7827;53.594;9.938;2022-09-30T04:59:39;9.60;99.90
15452;DHT22;7827;53.594;9.938;2022-09-30T05:02:09;9.60;99.90
15452;DHT22;7827;53.594;9.938;2022-09-30T05:04:41;9.60;99.90
15452;DHT22;7827;53.594;9.938;2022-09-30T05:07:09;9.60;99.90
15452;DHT22;7827;53.594;9.938;2022-09-30T05:09:37;9.60;99.90
15452;DHT22;7827;53.594;9.938;2022-09-30T05:12:06;9.60;99.90
15452;DHT22;7827;53.594;9.938;2022-09-30T05:14:34;9.60;99.90
15452;DHT22;7827;53.594;9.938;2022-09-30T05:17:03;9.60;99.90
15452;DHT22;7827;53.594;9.938;2022-09-30T05:19:31;9.60;99.90
15452;DHT22;7827;53.594;9.938;2022-09-30T05:22:01;9.50;99.90
15452;DHT22;7827;53.594;9.938;2022-09-30T05:24:29;9.50;99.90
15452;DHT22;7827;53.594;9.938;2022-09-30T05:27:00;9.50;99.90
15452;DHT22;7827;53.594;9.938;2022-09-30T05:29:28;9.50;99.90
15452;DHT22;7827;53.594;9.938;2022-09-30T05:31:56;9.40;99.90
15452;DHT22;7827;53.594;9.938;2022-09-30T05:34:25;9.40;99.90
15452;DHT22;7827;53.594;9.938;2022-09-30T05:36:54;9.40;99.90
15452;DHT22;7827;53.594;9.938;2022-09-30T05:39:24;9.40;99.90
15452;DHT22;7827;53.594;9.938;2022-09-30T05:41:52;9.40;99.90
15452;DHT22;7827;53.594;9.938;2022-09-30T05:44:23;9.40;99.90
15452;DHT22;7827;53.594;9.938;2022-09-30T05:46:52;9.40;99.90
15452;DHT22;7827;53.594;9.938;2022-09-30T05:49:21;9.40;99.90
15452;DHT22;7827;53.594;9.938;2022-09-30T05:51:49;9.30;99.90
15452;DHT22;7827;53.594;9.938;2022-09-30T05:54:17;9.40;99.90
15452;DHT22;7827;53.594;9.938;2022-09-30T05:56:47;9.40;99.90
15452;DHT22;7827;53.594;9.938;2022-09-30T05:59:15;9.40;99.90
15452;DHT22;7827;53.594;9.938;2022-09-30T06:01:43;9.40;99.90
15452;DHT22;7827;53.594;9.938;2022-09-30T06:04:11;9.40;99.90
15452;DHT22;7827;53.594;9.938;2022-09-30T06:06:39;9.40;99.90
15452;DHT22;7827;53.594;9.938;2022-09-30T06:09:07;9.40;99.90
15452;DHT22;7827;53.594;9.938;2022-09-30T06:11:36;9.40;99.90
15452;DHT22;7827;53.594;9.938;2022-09-30T06:14:06;9.50;99.90
15452;DHT22;7827;53.594;9.938;2022-09-30T06:16:34;9.50;99.90
15452;DHT22;7827;53.594;9.938;2022-09-30T06:19:02;9.50;99.90
15452;DHT22;7827;53.594;9.938;2022-09-30T06:21:31;9.50;99.90
15452;DHT22;7827;53.594;9.938;2022-09-30T06:24:00;9.50;99.90
15452;DHT22;7827;53.594;9.938;2022-09-30T06:26:28;9.60;99.90
15452;DHT22;7827;53.594;9.938;2022-09-30T06:28:56;9.60;99.90
15452;DHT22;7827;53.594;9.938;2022-09-30T06:31:25;9.80;99.90
15452;DHT22;7827;53.594;9.938;2022-09-30T06:33:54;9.80;99.90
15452;DHT22;7827;53.594;9.938;2022-09-30T06:36:22;9.90;99.90
15452;DHT22;7827;53.594;9.938;2022-09-30T06:38:50;10.00;99.90
15452;DHT22;7827;53.594;9.938;2022-09-30T06:41:20;10.00;99.90
15452;DHT22;7827;53.594;9.938;2022-09-30T06:43:50;10.10;99.90
15452;DHT22;7827;53.594;9.938;2022-09-30T06:46:29;10.20;99.90
15452;DHT22;7827;53.594;9.938;2022-09-30T06:48:58;10.20;99.90
15452;DHT22;7827;53.594;9.938;2022-09-30T06:51:38;10.20;99.90
15452;DHT22;7827;53.594;9.938;2022-09-30T06:54:06;10.20;99.90
15452;DHT22;7827;53.594;9.938;2022-09-30T06:56:34;10.30;99.90
15452;DHT22;7827;53.594;9.938;2022-09-30T06:59:02;10.30;99.90
15452;DHT22;7827;53.594;9.938;2022-09-30T07:01:32;10.40;99.90
15452;DHT22;7827;53.594;9.938;2022-09-30T07:04:00;10.40;99.90
15452;DHT22;7827;53.594;9.938;2022-09-30T07:06:35;10.50;99.90
15452;DHT22;7827;53.594;9.938;2022-09-30T07:09:04;10.60;99.90
15452;DHT22;7827;53.594;9.938;2022-09-30T07:11:32;10.60;99.90
15452;DHT22;7827;53.594;9.938;2022-09-30T07:14:02;10.70;99.90
15452;DHT22;7827;53.594;9.938;2022-09-30T07:16:32;10.80;99.90
15452;DHT22;7827;53.594;9.938;2022-09-30T07:19:02;10.90;99.90
15452;DHT22;7827;53.594;9.938;2022-09-30T07:21:32;10.90;99.90
15452;DHT22;7827;53.594;9.938;2022-09-30T07:24:01;10.90;99.90
15452;DHT22;7827;53.594;9.938;2022-09-30T07:26:29;10.90;99.90
15452;DHT22;7827;53.594;9.938;2022-09-30T07:28:57;11.10;99.90
15452;DHT22;7827;53.594;9.938;2022-09-30T07:31:26;11.10;99.90
15452;DHT22;7827;53.594;9.938;2022-09-30T07:34:03;11.10;99.90
15452;DHT22;7827;53.594;9.938;2022-09-30T07:36:34;11.20;99.90
15452;DHT22;7827;53.594;9.938;2022-09-30T07:39:05;11.20;99.90
15452;DHT22;7827;53.594;9.938;2022-09-30T07:41:38;11.30;99.90
15452;DHT22;7827;53.594;9.938;2022-09-30T07:44:10;11.40;99.90
15452;DHT22;7827;53.594;9.938;2022-09-30T07:46:41;11.50;99.90
15452;DHT22;7827;53.594;9.938;2022-09-30T07:49:15;11.70;99.90
15452;DHT22;7827;53.594;9.938;2022-09-30T07:51:52;11.70;99.90
15452;DHT22;7827;53.594;9.938;2022-09-30T07:54:25;11.70;99.90
15452;DHT22;7827;53.594;9.938;2022-09-30T07:56:55;11.90;99.90
15452;DHT22;7827;53.594;9.938;2022-09-30T07:59:38;11.90;99.90
15452;DHT22;7827;53.594;9.938;2022-09-30T08:02:13;12.00;99.90
15452;DHT22;7827;53.594;9.938;2022-09-30T08:04:47;12.00;99.90
15452;DHT22;7827;53.594;9.938;2022-09-30T08:07:16;12.00;99.90
15452;DHT22;7827;53.594;9.938;2022-09-30T08:09:45;12.10;99.90
15452;DHT22;7827;53.594;9.938;2022-09-30T08:12:13;12.20;99.90
15452;DHT22;7827;53.594;9.938;2022-09-30T08:14:41;12.20;99.90
15452;DHT22;7827;53.594;9.938;2022-09-30T08:17:10;12.30;99.90
15452;DHT22;7827;53.594;9.938;2022-09-30T08:19:38;12.30;99.90
15452;DHT22;7827;53.594;9.938;2022-09-30T08:22:11;12.40;99.90
15452;DHT22;7827;53.594;9.938;2022-09-30T08:24:39;12.50;99.90
15452;DHT22;7827;53.594;9.938;2022-09-30T08:27:07;12.60;99.90
15452;DHT22;7827;53.594;9.938;2022-09-30T08:29:35;12.70;99.90
15452;DHT22;7827;53.594;9.938;2022-09-30T08:32:22;12.80;99.90
15452;DHT22;7827;53.594;9.938;2022-09-30T08:34:50;12.80;99.90
15452;DHT22;7827;53.594;9.938;2022-09-30T08:37:20;12.80;99.90
15452;DHT22;7827;53.594;9.938;2022-09-30T08:39:49;12.80;99.90
15452;DHT22;7827;53.594;9.938;2022-09-30T08:42:32;12.90;99.90
15452;DHT22;7827;53.594;9.938;2022-09-30T08:45:28;13.10;99.90
15452;DHT22;7827;53.594;9.938;2022-09-30T08:48:13;13.30;99.90
15452;DHT22;7827;53.594;9.938;2022-09-30T08:50:59;13.40;99.90
15452;DHT22;7827;53.594;9.938;2022-09-30T08:53:40;13.50;99.90
15452;DHT22;7827;53.594;9.938;2022-09-30T08:56:16;13.50;99.90
15452;DHT22;7827;53.594;9.938;2022-09-30T08:58:52;13.60;99.90
15452;DHT22;7827;53.594;9.938;2022-09-30T09:01:28;13.70;99.90
15452;DHT22;7827;53.594;9.938;2022-09-30T09:04:01;13.80;99.90
15452;DHT22;7827;53.594;9.938;2022-09-30T09:06:37;13.90;99.90
15452;DHT22;7827;53.594;9.938;2022-09-30T09:09:34;14.00;99.90
15452;DHT22;7827;53.594;9.938;2022-09-30T09:12:19;13.90;99.90
15452;DHT22;7827;53.594;9.938;2022-09-30T09:15:05;13.90;99.90
15452;DHT22;7827;53.594;9.938;2022-09-30T09:18:10;13.90;99.90
15452;DHT22;7827;53.594;9.938;2022-09-30T09:20:54;13.90;99.90
15452;DHT22;7827;53.594;9.938;2022-09-30T09:23:25;13.90;99.90
15452;DHT22;7827;53.594;9.938;2022-09-30T09:25:55;14.00;99.90
15452;DHT22;7827;53.594;9.938;2022-09-30T09:28:30;14.20;99.90
15452;DHT22;7827;53.594;9.938;2022-09-30T09:31:03;14.30;99.90
15452;DHT22;7827;53.594;9.938;2022-09-30T09:33:34;14.40;99.90
15452;DHT22;7827;53.594;9.938;2022-09-30T09:36:18;14.40;99.90
15452;DHT22;7827;53.594;9.938;2022-09-30T09:39:06;14.50;99.90
15452;DHT22;7827;53.594;9.938;2022-09-30T09:41:51;14.50;99.90
15452;DHT22;7827;53.594;9.938;2022-09-30T09:44:31;14.50;99.90
15452;DHT22;7827;53.594;9.938;2022-09-30T09:47:08;14.50;99.90
15452;DHT22;7827;53.594;9.938;2022-09-30T09:49:42;14.50;99.90
15452;DHT22;7827;53.594;9.938;2022-09-30T09:52:41;14.50;99.90
15452;DHT22;7827;53.594;9.938;2022-09-30T09:55:20;14.40;99.90
15452;DHT22;7827;53.594;9.938;2022-09-30T09:58:08;14.30;99.90
15452;DHT22;7827;53.594;9.938;2022-09-30T10:00:40;14.30;99.90
15452;DHT22;7827;53.594;9.938;2022-09-30T10:03:26;14.20;99.90
15452;DHT22;7827;53.594;9.938;2022-09-30T10:06:01;14.20;99.90
15452;DHT22;7827;53.594;9.938;2022-09-30T10:08:33;14.10;99.90
15452;DHT22;7827;53.594;9.938;2022-09-30T10:11:06;14.10;99.90
15452;DHT22;7827;53.594;9.938;2022-09-30T10:13:45;14.20;99.90
15452;DHT22;7827;53.594;9.938;2022-09-30T10:16:26;14.20;99.90
15452;DHT22;7827;53.594;9.938;2022-09-30T10:18:58;14.30;99.90
15452;DHT22;7827;53.594;9.938;2022-09-30T10:21:30;14.40;99.90
15452;DHT22;7827;53.594;9.938;2022-09-30T10:23:58;14.50;99.90
15452;DHT22;7827;53.594;9.938;2022-09-30T10:26:46;14.50;99.90
15452;DHT22;7827;53.594;9.938;2022-09-30T10:29:26;14.50;99.90
15452;DHT22;7827;53.594;9.938;2022-09-30T10:31:55;14.60;99.90
15452;DHT22;7827;53.594;9.938;2022-09-30T10:34:27;14.60;99.90
15452;DHT22;7827;53.594;9.938;2022-09-30T10:36:59;14.60;99.90
15452;DHT22;7827;53.594;9.938;2022-09-30T10:39:35;14.60;99.90
15452;DHT22;7827;53.594;9.938;2022-09-30T10:42:07;14.70;99.90
15452;DHT22;7827;53.594;9.938;2022-09-30T10:44:55;14.90;99.90
15452;DHT22;7827;53.594;9.938;2022-09-30T10:47:27;14.90;99.90
15452;DHT22;7827;53.594;9.938;2022-09-30T10:50:05;15.10;99.90
15452;DHT22;7827;53.594;9.938;2022-09-30T10:52:38;15.30;99.90
15452;DHT22;7827;53.594;9.938;2022-09-30T10:55:26;15.40;99.90
15452;DHT22;7827;53.594;9.938;2022-09-30T10:58:20;15.60;99.90
15452;DHT22;7827;53.594;9.938;2022-09-30T11:01:03;15.80;99.90
15452;DHT22;7827;53.594;9.938;2022-09-30T11:03:47;15.90;99.90
15452;DHT22;7827;53.594;9.938;2022-09-30T11:06:21;16.00;99.90
15452;DHT22;7827;53.594;9.938;2022-09-30T11:08:55;16.00;99.90
15452;DHT22;7827;53.594;9.938;2022-09-30T11:11:34;16.00;99.90
15452;DHT22;7827;53.594;9.938;2022-09-30T11:14:18;16.00;99.90
15452;DHT22;7827;53.594;9.938;2022-09-30T11:17:05;16.00;99.90
15452;DHT22;7827;53.594;9.938;2022-09-30T11:19:51;16.10;99.90
15452;DHT22;7827;53.594;9.938;2022-09-30T11:22:32;16.10;99.90
15452;DHT22;7827;53.594;9.938;2022-09-30T11:25:12;16.20;99.90
15452;DHT22;7827;53.594;9.938;2022-09-30T11:27:52;16.20;99.90
15452;DHT22;7827;53.594;9.938;2022-09-30T11:30:33;16.30;99.90
15452;DHT22;7827;53.594;9.938;2022-09-30T11:33:23;16.50;99.90
15452;DHT22;7827;53.594;9.938;2022-09-30T11:36:08;16.50;99.90
15452;DHT22;7827;53.594;9.938;2022-09-30T11:38:59;16.50;99.90
15452;DHT22;7827;53.594;9.938;2022-09-30T11:41:46;16.60;99.90
15452;DHT22;7827;53.594;9.938;2022-09-30T11:44:30;16.70;99.90
15452;DHT22;7827;53.594;9.938;2022-09-30T11:47:14;16.70;99.90
15452;DHT22;7827;53.594;9.938;2022-09-30T11:50:28;16.70;99.90
15452;DHT22;7827;53.594;9.938;2022-09-30T11:53:14;16.30;99.90
15452;DHT22;7827;53.594;9.938;2022-09-30T11:56:05;16.10;99.90
15452;DHT22;7827;53.594;9.938;2022-09-30T11:58:46;15.90;99.90
15452;DHT22;7827;53.594;9.938;2022-09-30T12:01:20;15.70;99.90
15452;DHT22;7827;53.594;9.938;2022-09-30T12:03:58;15.60;99.90
15452;DHT22;7827;53.594;9.938;2022-09-30T12:06:34;15.60;99.90
15452;DHT22;7827;53.594;9.938;2022-09-30T12:09:14;15.80;99.90
15452;DHT22;7827;53.594;9.938;2022-09-30T12:11:52;16.00;99.90
15452;DHT22;7827;53.594;9.938;2022-09-30T12:14:27;16.20;99.90
15452;DHT22;7827;53.594;9.938;2022-09-30T12:17:03;16.30;99.90
15452;DHT22;7827;53.594;9.938;2022-09-30T12:19:40;16.40;99.90
15452;DHT22;7827;53.594;9.938;2022-09-30T12:22:16;16.60;99.90
15452;DHT22;7827;53.594;9.938;2022-09-30T12:24:48;16.70;99.90
15452;DHT22;7827;53.594;9.938;2022-09-30T12:27:20;16.70;99.90
15452;DHT22;7827;53.594;9.938;2022-09-30T12:29:57;16.80;99.90
15452;DHT22;7827;53.594;9.938;2022-09-30T12:36:25;16.60;99.90
15452;DHT22;7827;53.594;9.938;2022-09-30T12:39:34;16.70;99.90
15452;DHT22;7827;53.594;9.938;2022-09-30T12:42:28;16.80;99.90
15452;DHT22;7827;53.594;9.938;2022-09-30T12:45:27;16.70;99.90
15452;DHT22;7827;53.594;9.938;2022-09-30T12:48:09;16.80;99.90
15452;DHT22;7827;53.594;9.938;2022-09-30T12:50:45;16.70;99.90
15452;DHT22;7827;53.594;9.938;2022-09-30T12:53:18;16.60;99.90
15452;DHT22;7827;53.594;9.938;2022-09-30T12:55:52;16.40;99.90
15452;DHT22;7827;53.594;9.938;2022-09-30T12:58:24;16.20;99.90
15452;DHT22;7827;53.594;9.938;2022-09-30T13:01:06;16.20;99.90
15452;DHT22;7827;53.594;9.938;2022-09-30T13:03:47;16.10;99.90
15452;DHT22;7827;53.594;9.938;2022-09-30T13:06:19;16.10;99.90
15452;DHT22;7827;53.594;9.938;2022-09-30T13:09:15;16.10;99.90
15452;DHT22;7827;53.594;9.938;2022-09-30T13:11:49;16.30;99.90
15452;DHT22;7827;53.594;9.938;2022-09-30T13:14:43;16.30;99.90
15452;DHT22;7827;53.594;9.938;2022-09-30T13:17:25;16.30;99.90
15452;DHT22;7827;53.594;9.938;2022-09-30T13:19:54;16.50;99.90
15452;DHT22;7827;53.594;9.938;2022-09-30T13:22:56;16.50;99.90
15452;DHT22;7827;53.594;9.938;2022-09-30T13:25:25;16.50;99.90
15452;DHT22;7827;53.594;9.938;2022-09-30T13:28:28;16.50;99.90
15452;DHT22;7827;53.594;9.938;2022-09-30T13:31:11;16.50;99.90
15452;DHT22;7827;53.594;9.938;2022-09-30T13:33:46;16.30;99.90
15452;DHT22;7827;53.594;9.938;2022-09-30T13:36:39;16.20;99.90
15452;DHT22;7827;53.594;9.938;2022-09-30T13:39:42;16.20;99.90
15452;DHT22;7827;53.594;9.938;2022-09-30T13:42:20;16.30;99.90
15452;DHT22;7827;53.594;9.938;2022-09-30T13:45:01;16.30;99.90
15452;DHT22;7827;53.594;9.938;2022-09-30T13:47:34;16.40;99.90
15452;DHT22;7827;53.594;9.938;2022-09-30T13:50:13;16.40;99.90
15452;DHT22;7827;53.594;9.938;2022-09-30T13:52:47;16.50;99.90
15452;DHT22;7827;53.594;9.938;2022-09-30T13:55:22;16.50;99.90
15452;DHT22;7827;53.594;9.938;2022-09-30T13:58:07;16.60;99.90
15452;DHT22;7827;53.594;9.938;2022-09-30T14:00:57;16.40;99.90
15452;DHT22;7827;53.594;9.938;2022-09-30T14:03:47;16.20;99.90
15452;DHT22;7827;53.594;9.938;2022-09-30T14:06:40;16.20;99.90
15452;DHT22;7827;53.594;9.938;2022-09-30T14:09:31;16.20;99.90
15452;DHT22;7827;53.594;9.938;2022-09-30T14:12:22;16.30;99.90
15452;DHT22;7827;53.594;9.938;2022-09-30T14:15:32;16.30;99.90
15452;DHT22;7827;53.594;9.938;2022-09-30T14:18:41;16.30;99.90
15452;DHT22;7827;53.594;9.938;2022-09-30T14:21:36;16.20;99.90
15452;DHT22;7827;53.594;9.938;2022-09-30T14:24:10;16.10;99.90
15452;DHT22;7827;53.594;9.938;2022-09-30T14:27:03;16.10;99.90
15452;DHT22;7827;53.594;9.938;2022-09-30T14:29:49;16.10;99.90
15452;DHT22;7827;53.594;9.938;2022-09-30T14:32:27;16.00;99.90
15452;DHT22;7827;53.594;9.938;2022-09-30T14:35:02;15.90;99.90
15452;DHT22;7827;53.594;9.938;2022-09-30T14:37:37;15.90;99.90
15452;DHT22;7827;53.594;9.938;2022-09-30T14:40:09;15.90;99.90
15452;DHT22;7827;53.594;9.938;2022-09-30T14:42:44;15.90;99.90
15452;DHT22;7827;53.594;9.938;2022-09-30T14:45:20;16.00;99.90
15452;DHT22;7827;53.594;9.938;2022-09-30T14:47:56;15.90;99.90
15452;DHT22;7827;53.594;9.938;2022-09-30T14:50:33;15.80;99.90
15452;DHT22;7827;53.594;9.938;2022-09-30T14:53:03;15.70;99.90
15452;DHT22;7827;53.594;9.938;2022-09-30T14:55:33;15.60;99.90
15452;DHT22;7827;53.594;9.938;2022-09-30T14:58:20;15.60;99.90
15452;DHT22;7827;53.594;9.938;2022-09-30T15:01:04;15.60;99.90
15452;DHT22;7827;53.594;9.938;2022-09-30T15:03:35;15.60;99.90
15452;DHT22;7827;53.594;9.938;2022-09-30T15:06:17;15.50;99.90
15452;DHT22;7827;53.594;9.938;2022-09-30T15:08:48;15.50;99.90
15452;DHT22;7827;53.594;9.938;2022-09-30T15:11:19;15.60;99.90
15452;DHT22;7827;53.594;9.938;2022-09-30T15:13:54;15.60;99.90
15452;DHT22;7827;53.594;9.938;2022-09-30T15:16:27;15.80;99.90
15452;DHT22;7827;53.594;9.938;2022-09-30T15:18:58;15.80;99.90
15452;DHT22;7827;53.594;9.938;2022-09-30T15:21:29;15.70;99.90
15452;DHT22;7827;53.594;9.938;2022-09-30T15:23:59;15.80;99.90
15452;DHT22;7827;53.594;9.938;2022-09-30T15:26:30;15.80;99.90
15452;DHT22;7827;53.594;9.938;2022-09-30T15:29:02;15.70;99.90
15452;DHT22;7827;53.594;9.938;2022-09-30T15:31:31;15.70;99.90
15452;DHT22;7827;53.594;9.938;2022-09-30T15:34:05;15.60;99.90
15452;DHT22;7827;53.594;9.938;2022-09-30T15:36:36;15.50;99.90
15452;DHT22;7827;53.594;9.938;2022-09-30T15:39:17;15.40;99.90
15452;DHT22;7827;53.594;9.938;2022-09-30T15:41:50;15.40;99.90
15452;DHT22;7827;53.594;9.938;2022-09-30T15:44:36;15.40;99.90
15452;DHT22;7827;53.594;9.938;2022-09-30T15:47:07;15.30;99.90
15452;DHT22;7827;53.594;9.938;2022-09-30T15:49:46;15.20;99.90
15452;DHT22;7827;53.594;9.938;2022-09-30T15:52:29;15.20;99.90
15452;DHT22;7827;53.594;9.938;2022-09-30T15:55:37;15.20;99.90
15452;DHT22;7827;53.594;9.938;2022-09-30T15:58:31;15.10;99.90
15452;DHT22;7827;53.594;9.938;2022-09-30T16:01:15;15.10;99.90
15452;DHT22;7827;53.594;9.938;2022-09-30T16:03:53;15.00;99.90
15452;DHT22;7827;53.594;9.938;2022-09-30T16:06:28;14.90;99.90
15452;DHT22;7827;53.594;9.938;2022-09-30T16:09:05;14.90;99.90
15452;DHT22;7827;53.594;9.938;2022-09-30T16:11:45;14.90;99.90
15452;DHT22;7827;53.594;9.938;2022-09-30T16:14:27;14.80;99.90
15452;DHT22;7827;53.594;9.938;2022-09-30T16:17:00;14.70;99.90
15452;DHT22;7827;53.594;9.938;2022-09-30T16:19:31;14.70;99.90
15452;DHT22;7827;53.594;9.938;2022-09-30T16:22:00;14.60;99.90
15452;DHT22;7827;53.594;9.938;2022-09-30T16:24:47;14.60;99.90
15452;DHT22;7827;53.594;9.938;2022-09-30T16:27:28;14.60;99.90
15452;DHT22;7827;53.594;9.938;2022-09-30T16:30:01;15.00;99.90
15452;DHT22;7827;53.594;9.938;2022-09-30T16:32:36;14.70;99.90
15452;DHT22;7827;53.594;9.938;2022-09-30T16:35:14;14.60;99.90
15452;DHT22;7827;53.594;9.938;2022-09-30T16:37:45;14.50;99.90
15452;DHT22;7827;53.594;9.938;2022-09-30T16:40:19;14.50;99.90
15452;DHT22;7827;53.594;9.938;2022-09-30T16:42:50;14.40;99.90
15452;DHT22;7827;53.594;9.938;2022-09-30T16:45:21;14.30;99.90
15452;DHT22;7827;53.594;9.938;2022-09-30T16:47:49;14.30;99.90
15452;DHT22;7827;53.594;9.938;2022-09-30T16:50:31;14.30;99.90
15452;DHT22;7827;53.594;9.938;2022-09-30T16:53:02;14.10;99.90
15452;DHT22;7827;53.594;9.938;2022-09-30T16:55:32;14.10;99.90
15452;DHT22;7827;53.594;9.938;2022-09-30T16:58:00;14.20;99.90
15452;DHT22;7827;53.594;9.938;2022-09-30T17:00:30;14.10;99.90